Airfield :
LOGIN :

Register | Disclaimer

   EN    FR    IT 

 










Legend :    VFR   Marginal VFR   IFR   Intensive IFR   Very Intensive IFR
Visi :
Ceiling :
>= 8 km
>= 3000ft
5 to 8 km
1000 to 3000 ft
1500m to 5 km
500 to 1000 ft
800 to 1500m
200 to 500 ft
< 800m
< 200 ft
Symbols :   Thunderstorms  Fog  Heavy snow  Heavy precipitations  Wind > 20 kt
SIGMETs :     Misc.  Thunderstorms  Icing  Turbulence  Mountain Waves  Volcanic Ashes







- Airport Elevation : 194 ft
- IATA code : LME
- Download approach charts


LFRM - Le Mans

CURRENT METAR :
  • 222330Z AUTO 10002KT 5000 BR NSC 14/09 Q0998

EXPIRED METARs :
  • 222300Z AUTO 00000KT 5000 HZ NSC 15/09 Q0998
  • 222230Z AUTO 00000KT 6000 NSC 16/09 Q0998
  • 222200Z AUTO 00000KT 6000 NSC 16/09 Q0999
  • 222130Z AUTO 00000KT CAVOK 17/10 Q0999
  • 222100Z AUTO VRB01KT 9999 ///TCU 18/09 Q0999 BECMG NSC

TAF TAF LFRM
Valid from the 22 at 18:00 until the 23 at 18:00 UTC


221700Z 2218/2318 10007KT CAVOK
PROB30
TEMPO 2218/2221 VRB15G25KT -SHRA BKN070TCU
BECMG 2221/2223 VRB03KT
PROB40
TEMPO 2308/2312 -SHRA SCT060TCU
BECMG 2312/2314 12010KT
PROB40
TEMPO 2315/2318 VRB15G30KT 3000 TSRA SCT015 BKN060CB
No reported NOTAMs for that airfield.



MET'MAP, your aeronautical weather chart ! - Copyright ORBIFLY December 2007 - Disclaimer

ORBIFLY MET'MAP TEAM :

Programming & Development : Alexandra Zaïnal
Concept & Development : Baudouin d'Aumeries
Co-Development & Prog : Marc-Olivier Méhu
Technical & hardware support : Manuel Goepfert

Contact : metmap@orbifly.com




SOURCES & CREDITS :

   NOAA